Time;durP1;ratioP1;P1;durP2;ratioP2;P2;SDS_P1;SDS_P2;PMS_P1;PMS_P2;Temp;Humidity;BMP_temperature;BMP_pressure;BME280_temperature;BME280_humidity;BME280_pressure;Samples;Min_cycle;Max_cycle;Signal;HPM_P1;HPM_P2
2023/07/19 00:02:11;;;;;;;8.67;5.20;;;13.90;72.60;;;;;;5004600;28;20451;-69
2023/07/19 00:04:37;;;;;;;9.90;4.83;;;13.90;72.60;;;;;;4999905;28;20497;-69
2023/07/19 00:07:05;;;;;;;9.13;5.40;;;13.90;72.60;;;;;;4993248;28;20458;-68
2023/07/19 00:09:32;;;;;;;7.80;5.50;;;13.80;72.50;;;;;;5011912;28;20450;-69
2023/07/19 00:12:00;;;;;;;12.10;7.03;;;13.90;75.40;;;;;;5013290;28;20933;-69
2023/07/19 00:14:27;;;;;;;8.10;7.03;;;13.90;78.80;;;;;;5007434;28;20453;-69
2023/07/19 00:16:53;;;;;;;8.83;6.40;;;14.00;76.80;;;;;;4993714;28;20462;-69
2023/07/19 00:19:20;;;;;;;9.67;6.27;;;14.00;76.20;;;;;;4994172;28;20459;-69
2023/07/19 00:21:47;;;;;;;9.33;5.37;;;13.90;74.90;;;;;;5002271;28;20984;-68
2023/07/19 00:24:14;;;;;;;8.80;5.10;;;13.90;72.60;;;;;;5010610;28;20484;-68
2023/07/19 00:26:41;;;;;;;9.57;5.63;;;13.90;72.60;;;;;;4998336;28;20456;-69
2023/07/19 00:29:09;;;;;;;12.40;4.63;;;13.90;72.60;;;;;;5004190;28;20533;-69
2023/07/19 00:31:36;;;;;;;10.00;4.67;;;14.00;72.70;;;;;;5005388;28;20818;-69
2023/07/19 00:34:03;;;;;;;9.93;4.80;;;14.00;72.70;;;;;;4996785;28;20473;-69
2023/07/19 00:36:30;;;;;;;8.00;5.13;;;14.10;72.80;;;;;;5009476;28;20826;-69
2023/07/19 00:38:56;;;;;;;10.40;4.60;;;14.10;72.80;;;;;;4993075;28;20450;-68
2023/07/19 00:41:23;;;;;;;9.47;4.30;;;14.10;70.90;;;;;;5009418;28;20469;-68
2023/07/19 00:43:50;;;;;;;13.63;4.10;;;14.40;65.00;;;;;;5003631;28;20474;-68
2023/07/19 00:46:20;;;;;;;6.60;3.13;;;14.60;65.20;;;;;;5009695;28;20449;-68
2023/07/19 00:48:47;;;;;;;6.30;3.57;;;14.70;65.20;;;;;;5012691;28;20457;-69
2023/07/19 00:51:14;;;;;;;14.30;3.53;;;14.80;63.30;;;;;;4997070;28;20558;-69
2023/07/19 00:53:41;;;;;;;7.33;3.40;;;14.70;63.10;;;;;;5011076;28;20450;-69
2023/07/19 00:56:09;;;;;;;7.70;3.70;;;14.70;65.20;;;;;;5012278;28;20453;-69
2023/07/19 00:58:36;;;;;;;11.30;4.50;;;14.50;65.10;;;;;;4997245;28;20451;-68
2023/07/19 01:01:05;;;;;;;6.90;4.20;;;14.40;65.00;;;;;;5009010;28;20453;-68
2023/07/19 01:03:34;;;;;;;10.57;5.70;;;14.30;64.90;;;;;;5000468;28;20477;-68
2023/07/19 01:06:01;;;;;;;9.33;4.50;;;14.20;68.80;;;;;;4997566;28;20451;-68
2023/07/19 01:08:28;;;;;;;8.33;5.30;;;14.10;70.40;;;;;;4997566;28;20454;-69
2023/07/19 01:10:55;;;;;;;9.93;5.50;;;14.00;72.70;;;;;;4996563;28;20449;-68
2023/07/19 01:13:22;;;;;;;9.50;5.90;;;13.90;72.60;;;;;;4996356;28;20791;-69
2023/07/19 01:15:49;;;;;;;10.03;6.67;;;13.80;72.50;;;;;;5001625;28;20457;-68
2023/07/19 01:18:18;;;;;;;10.67;7.30;;;13.70;77.00;;;;;;5004807;28;20458;-68
2023/07/19 01:20:46;;;;;;;14.40;6.63;;;13.60;77.40;;;;;;4997727;28;21785;-68
2023/07/19 01:23:15;;;;;;;10.97;7.23;;;13.60;79.00;;;;;;4997227;28;20945;-68
2023/07/19 01:25:42;;;;;;;9.73;7.53;;;13.50;80.10;;;;;;5006625;28;20445;-69
2023/07/19 01:28:09;;;;;;;12.00;7.33;;;13.50;80.10;;;;;;4994990;28;20454;-68
2023/07/19 01:30:36;;;;;;;12.23;7.70;;;13.50;80.10;;;;;;5009107;28;20449;-68
2023/07/19 01:33:03;;;;;;;10.40;7.37;;;13.50;80.00;;;;;;5005053;28;20445;-68
2023/07/19 01:35:29;;;;;;;9.70;6.97;;;13.50;80.00;;;;;;5002302;28;20451;-68
2023/07/19 01:37:56;;;;;;;10.93;6.60;;;13.50;78.70;;;;;;5005646;28;20816;-68
2023/07/19 01:40:24;;;;;;;11.40;7.20;;;13.50;74.30;;;;;;5011909;28;20457;-68
2023/07/19 01:42:51;;;;;;;12.50;7.97;;;13.50;76.50;;;;;;5003521;28;20457;-68
2023/07/19 01:45:18;;;;;;;12.03;7.77;;;13.40;76.20;;;;;;5002249;28;20475;-68
2023/07/19 01:47:45;;;;;;;9.60;8.80;;;13.40;79.90;;;;;;5001828;28;20465;-68
2023/07/19 01:50:12;;;;;;;14.07;10.70;;;13.40;80.00;;;;;;5006264;28;20455;-68
2023/07/19 01:52:39;;;;;;;12.90;11.80;;;13.30;80.00;;;;;;5001054;28;20460;-68
2023/07/19 01:55:07;;;;;;;15.73;13.63;;;13.40;80.00;;;;;;5005456;28;20454;-68
2023/07/19 01:57:35;;;;;;;15.40;12.50;;;13.30;80.00;;;;;;5002041;28;20520;-68
2023/07/19 02:00:03;;;;;;;17.57;13.30;;;13.20;79.90;;;;;;4995553;28;20450;-68
2023/07/19 02:02:29;;;;;;;14.40;12.90;;;13.20;79.90;;;;;;4993344;28;20466;-68
2023/07/19 02:04:56;;;;;;;13.20;12.20;;;13.20;79.90;;;;;;5009958;28;20584;-69
2023/07/19 02:07:23;;;;;;;11.10;10.10;;;13.20;79.90;;;;;;5007364;28;20530;-68
2023/07/19 02:09:50;;;;;;;17.03;10.37;;;13.20;79.90;;;;;;4997362;28;20458;-68
2023/07/19 02:12:17;;;;;;;11.80;10.60;;;13.20;79.90;;;;;;5009986;28;20829;-68
2023/07/19 02:14:45;;;;;;;13.50;9.73;;;13.30;80.00;;;;;;5003258;28;20461;-68
2023/07/19 02:17:12;;;;;;;12.57;9.73;;;13.20;79.90;;;;;;4999010;28;20459;-68
2023/07/19 02:19:38;;;;;;;10.53;8.67;;;13.20;79.80;;;;;;5002523;28;20457;-68
2023/07/19 02:22:06;;;;;;;13.63;10.73;;;13.10;79.80;;;;;;4997746;28;20466;-68
2023/07/19 02:24:33;;;;;;;13.07;11.40;;;13.10;79.80;;;;;;5015060;28;20474;-68
2023/07/19 02:27:00;;;;;;;17.07;15.63;;;13.10;79.80;;;;;;5008510;28;20457;-68
2023/07/19 02:29:26;;;;;;;13.10;12.00;;;13.20;79.90;;;;;;5000380;28;20454;-69
2023/07/19 02:31:55;;;;;;;21.10;19.80;;;13.20;79.90;;;;;;5002809;28;20452;-69
2023/07/19 02:34:22;;;;;;;20.77;19.00;;;13.30;80.10;;;;;;5013555;28;20472;-68
2023/07/19 02:36:49;;;;;;;15.27;13.90;;;13.50;80.10;;;;;;5003634;28;20454;-69
2023/07/19 02:39:17;;;;;;;8.63;7.73;;;13.60;80.20;;;;;;5007790;28;20536;-68
2023/07/19 02:41:44;;;;;;;12.73;7.70;;;13.80;76.50;;;;;;5014935;28;20895;-69
2023/07/19 02:44:10;;;;;;;12.37;7.60;;;13.90;76.10;;;;;;5008177;28;20477;-68
2023/07/19 02:46:37;;;;;;;13.43;5.60;;;14.00;72.80;;;;;;5014892;28;20454;-69
2023/07/19 02:49:05;;;;;;;8.00;7.17;;;14.20;72.90;;;;;;5011223;28;20504;-69
2023/07/19 02:51:32;;;;;;;14.60;6.30;;;14.40;75.50;;;;;;5014743;28;20834;-69
2023/07/19 02:53:59;;;;;;;8.13;5.13;;;14.60;73.20;;;;;;4998256;28;20447;-69
2023/07/19 02:56:26;;;;;;;8.30;4.87;;;14.70;70.80;;;;;;4999771;28;20450;-69
2023/07/19 02:58:54;;;;;;;9.67;7.60;;;14.80;71.60;;;;;;4995290;28;20454;-69
2023/07/19 03:01:21;;;;;;;14.20;12.90;;;14.90;78.80;;;;;;5011104;28;20553;-69
2023/07/19 03:03:48;;;;;;;11.00;10.10;;;15.00;81.40;;;;;;4998308;28;20450;-69
2023/07/19 03:06:17;;;;;;;9.80;8.80;;;15.10;81.60;;;;;;5014230;28;20454;-69
2023/07/19 03:08:44;;;;;;;13.33;12.13;;;14.90;81.40;;;;;;5005844;28;20449;-69
2023/07/19 03:11:10;;;;;;;11.63;6.33;;;14.90;82.20;;;;;;5013994;28;20481;-70
2023/07/19 03:13:37;;;;;;;12.80;8.60;;;14.90;81.30;;;;;;5003761;28;20493;-70
2023/07/19 03:16:06;;;;;;;12.03;7.47;;;14.90;81.40;;;;;;5002383;28;20442;-70
2023/07/19 03:18:32;;;;;;;9.20;7.07;;;14.90;81.40;;;;;;5003667;28;20508;-69
2023/07/19 03:21:00;;;;;;;11.13;5.80;;;14.90;81.30;;;;;;5005819;28;20460;-69
2023/07/19 03:23:30;;;;;;;7.97;7.17;;;14.90;78.30;;;;;;5014062;28;20449;-69
2023/07/19 03:25:58;;;;;;;12.87;5.50;;;14.90;79.40;;;;;;5009889;28;20469;-69
2023/07/19 03:28:25;;;;;;;12.73;5.70;;;14.90;75.80;;;;;;5002227;28;20548;-69
2023/07/19 03:30:54;;;;;;;12.17;8.40;;;14.90;77.20;;;;;;5014109;28;20457;-69
2023/07/19 03:33:22;;;;;;;14.23;9.30;;;14.90;81.20;;;;;;5005498;28;20450;-69
2023/07/19 03:35:49;;;;;;;12.90;11.70;;;14.90;81.40;;;;;;4999313;28;20820;-69
2023/07/19 03:38:16;;;;;;;19.83;17.13;;;14.90;82.20;;;;;;5002875;28;20454;-68
2023/07/19 03:40:44;;;;;;;14.63;13.07;;;14.80;81.30;;;;;;5009573;28;20468;-68
2023/07/19 03:43:11;;;;;;;15.80;14.30;;;14.80;81.30;;;;;;5001164;28;20451;-68
2023/07/19 03:45:39;;;;;;;19.60;15.97;;;14.80;81.30;;;;;;5009910;28;20477;-69
2023/07/19 03:48:06;;;;;;;19.20;17.90;;;14.80;81.30;;;;;;5010977;28;20446;-69
2023/07/19 03:50:33;;;;;;;15.20;13.70;;;14.90;81.50;;;;;;4996809;28;20465;-69
2023/07/19 03:53:01;;;;;;;15.13;12.00;;;14.90;81.40;;;;;;5006082;28;20826;-69
2023/07/19 03:55:28;;;;;;;20.67;12.50;;;15.00;81.50;;;;;;5001857;28;20489;-69
2023/07/19 03:57:56;;;;;;;15.07;13.87;;;15.00;81.50;;;;;;5011927;28;20460;-70
2023/07/19 04:00:23;;;;;;;14.23;10.30;;;14.90;81.40;;;;;;4996697;28;20451;-69
2023/07/19 04:02:50;;;;;;;17.50;11.53;;;14.90;81.40;;;;;;5004767;28;20954;-69
2023/07/19 04:05:17;;;;;;;17.90;16.40;;;14.80;81.40;;;;;;4993935;28;20482;-69
2023/07/19 04:07:44;;;;;;;24.60;22.90;;;14.70;81.30;;;;;;4993854;28;20483;-69
2023/07/19 04:10:11;;;;;;;23.83;21.90;;;14.70;86.50;;;;;;4998004;28;20458;-69
2023/07/19 04:12:38;;;;;;;26.40;24.60;;;14.80;84.20;;;;;;5011188;28;20461;-69
2023/07/19 04:15:07;;;;;;;24.10;22.60;;;14.90;84.70;;;;;;5008330;28;20462;-69
2023/07/19 04:17:34;;;;;;;22.70;20.70;;;15.00;83.10;;;;;;4994866;28;20464;-69
2023/07/19 04:20:01;;;;;;;16.33;14.93;;;15.10;81.60;;;;;;5007939;28;20454;-69
2023/07/19 04:22:27;;;;;;;15.23;13.50;;;15.20;81.70;;;;;;5004047;28;20459;-69
2023/07/19 04:24:55;;;;;;;17.30;9.87;;;15.30;81.80;;;;;;5005998;28;20485;-66
2023/07/19 04:27:22;;;;;;;27.13;17.87;;;15.40;81.80;;;;;;4999167;28;20476;-64
2023/07/19 04:29:49;;;;;;;12.80;7.60;;;15.50;79.00;;;;;;4998880;28;20505;-64
2023/07/19 04:32:17;;;;;;;11.97;7.47;;;15.60;76.80;;;;;;5001841;28;20465;-64
2023/07/19 04:34:44;;;;;;;12.83;7.90;;;15.70;78.50;;;;;;4999042;28;20458;-64
2023/07/19 04:37:10;;;;;;;12.43;7.17;;;15.70;78.30;;;;;;5000592;28;20446;-64
2023/07/19 04:39:37;;;;;;;11.67;8.10;;;15.80;78.10;;;;;;4993209;28;20454;-64
2023/07/19 04:42:04;;;;;;;13.27;7.00;;;15.80;80.30;;;;;;4993174;28;20458;-64
2023/07/19 04:44:31;;;;;;;12.40;7.50;;;15.90;77.20;;;;;;4993139;28;20482;-64
2023/07/19 04:46:58;;;;;;;10.17;6.27;;;15.90;76.70;;;;;;4993234;28;20493;-64
2023/07/19 04:49:26;;;;;;;14.00;7.50;;;16.00;77.00;;;;;;4993268;28;20450;-64
2023/07/19 04:51:53;;;;;;;19.23;8.77;;;16.00;76.30;;;;;;4993199;28;20514;-64
2023/07/19 04:54:20;;;;;;;15.27;7.80;;;16.00;79.60;;;;;;4993220;28;20977;-64
2023/07/19 04:56:47;;;;;;;15.47;7.23;;;16.10;78.00;;;;;;4993126;28;20454;-64
2023/07/19 04:59:13;;;;;;;10.60;7.07;;;16.30;76.20;;;;;;4998734;28;20456;-64
2023/07/19 05:01:40;;;;;;;13.43;7.00;;;16.40;75.00;;;;;;5012450;28;20464;-64
2023/07/19 05:04:07;;;;;;;11.67;6.40;;;16.50;75.00;;;;;;5012566;28;20957;-64
2023/07/19 05:06:35;;;;;;;10.20;5.70;;;16.50;75.00;;;;;;5012216;28;20478;-64
2023/07/19 05:09:03;;;;;;;15.60;6.37;;;16.70;76.00;;;;;;5012312;28;20461;-64
2023/07/19 05:11:30;;;;;;;9.70;5.67;;;16.70;75.10;;;;;;5012439;28;21022;-64
2023/07/19 05:13:57;;;;;;;11.67;6.20;;;16.80;75.30;;;;;;5012518;28;20457;-65
2023/07/19 05:16:24;;;;;;;16.20;8.90;;;16.80;75.20;;;;;;5008021;28;20530;-65
2023/07/19 05:18:51;;;;;;;16.00;5.97;;;16.90;75.30;;;;;;4995738;28;20470;-65
2023/07/19 05:21:18;;;;;;;13.97;5.70;;;16.90;75.10;;;;;;5003298;28;20496;-65
2023/07/19 05:23:48;;;;;;;16.50;5.13;;;17.00;71.60;;;;;;5001895;28;20450;-65
2023/07/19 05:26:15;;;;;;;11.50;6.10;;;17.10;72.50;;;;;;4996520;28;21072;-65
2023/07/19 05:28:42;;;;;;;12.83;6.40;;;17.10;71.50;;;;;;4992520;28;20461;-65
2023/07/19 05:31:09;;;;;;;13.17;5.83;;;17.20;73.20;;;;;;4993267;28;20457;-65
2023/07/19 05:33:36;;;;;;;11.60;5.40;;;17.30;71.00;;;;;;4992479;28;21080;-64
2023/07/19 05:36:03;;;;;;;14.03;5.30;;;17.30;67.70;;;;;;4992940;28;20820;-65
2023/07/19 05:38:32;;;;;;;12.30;5.33;;;17.40;67.70;;;;;;4992601;28;20821;-64
2023/07/19 05:41:01;;;;;;;23.50;6.07;;;17.60;67.90;;;;;;4996012;28;20485;-65
2023/07/19 05:43:28;;;;;;;8.97;5.60;;;17.70;68.00;;;;;;4996549;28;20465;-64
2023/07/19 05:46:02;;;;;;;12.80;4.30;;;18.00;68.30;;;;;;4999543;28;20470;-64
2023/07/19 05:48:28;;;;;;;14.93;5.03;;;18.30;68.50;;;;;;5001676;28;20819;-64
2023/07/19 05:50:55;;;;;;;14.00;5.33;;;18.40;68.60;;;;;;5009956;28;20825;-64
2023/07/19 05:53:22;;;;;;;10.47;4.20;;;18.50;64.40;;;;;;5005348;28;20457;-64
2023/07/19 05:55:49;;;;;;;12.60;5.60;;;18.60;63.50;;;;;;5015906;28;20477;-65
2023/07/19 05:58:17;;;;;;;12.37;5.60;;;18.70;63.50;;;;;;5010471;28;20461;-64
2023/07/19 06:00:44;;;;;;;17.27;4.57;;;18.80;64.40;;;;;;5012003;28;20472;-66
2023/07/19 06:03:11;;;;;;;16.33;5.70;;;18.80;60.80;;;;;;5008919;28;20450;-64
2023/07/19 06:05:38;;;;;;;9.83;5.07;;;18.80;60.80;;;;;;5006792;28;20479;-64
2023/07/19 06:08:05;;;;;;;18.97;4.50;;;18.80;61.50;;;;;;5007588;28;20452;-64
2023/07/19 06:10:32;;;;;;;11.40;4.10;;;18.70;60.90;;;;;;5013934;28;20947;-64
2023/07/19 06:12:59;;;;;;;14.70;4.90;;;18.70;62.60;;;;;;5000413;28;20445;-64
2023/07/19 06:15:27;;;;;;;13.00;5.00;;;18.80;64.70;;;;;;5002319;28;20450;-64
2023/07/19 06:17:53;;;;;;;10.97;4.90;;;18.90;66.50;;;;;;5006879;28;20969;-64
2023/07/19 06:20:20;;;;;;;13.00;5.50;;;19.00;64.80;;;;;;5006899;28;20463;-64
2023/07/19 06:22:47;;;;;;;9.50;4.67;;;19.20;61.10;;;;;;5005160;28;20481;-64
2023/07/19 06:25:14;;;;;;;15.90;4.70;;;19.40;61.30;;;;;;4996836;28;20474;-64
2023/07/19 06:27:42;;;;;;;13.27;5.17;;;19.60;61.00;;;;;;5005303;28;20456;-64
2023/07/19 06:30:10;;;;;;;11.60;4.60;;;19.90;57.60;;;;;;5009982;28;20477;-64
2023/07/19 06:32:38;;;;;;;12.27;4.20;;;20.10;53.30;;;;;;4999439;28;20450;-64
2023/07/19 06:35:08;;;;;;;13.20;5.23;;;20.20;53.50;;;;;;5002964;28;20455;-64
2023/07/19 06:37:35;;;;;;;11.23;5.17;;;20.30;53.50;;;;;;5002339;28;20481;-64
2023/07/19 06:40:03;;;;;;;17.00;5.57;;;20.30;53.50;;;;;;5001538;28;20451;-64
2023/07/19 06:42:32;;;;;;;15.97;5.20;;;20.30;53.50;;;;;;5011770;28;20540;-64
2023/07/19 06:44:59;;;;;;;14.40;5.10;;;20.30;53.50;;;;;;4998569;28;20509;-64
2023/07/19 06:47:28;;;;;;;11.47;5.60;;;20.40;53.60;;;;;;5011731;28;20449;-64
2023/07/19 06:49:56;;;;;;;14.63;4.50;;;20.50;50.60;;;;;;5003703;28;20529;-65
2023/07/19 06:52:23;;;;;;;20.00;6.97;;;20.60;49.60;;;;;;5004688;28;20458;-65
2023/07/19 06:54:50;;;;;;;11.93;4.87;;;20.70;48.50;;;;;;4999658;28;20477;-71
2023/07/19 06:57:17;;;;;;;14.07;7.27;;;20.90;45.30;;;;;;4998334;28;20454;-70
2023/07/19 06:59:44;;;;;;;12.37;5.73;;;21.10;45.40;;;;;;5007740;28;20457;-70
2023/07/19 07:02:11;;;;;;;14.17;6.33;;;21.20;45.50;;;;;;5002894;28;20458;-70
2023/07/19 07:04:38;;;;;;;21.00;5.53;;;21.30;40.70;;;;;;4995099;28;20462;-70
2023/07/19 07:07:07;;;;;;;11.67;5.30;;;21.30;41.30;;;;;;4994858;28;20863;-70
2023/07/19 07:09:33;;;;;;;13.33;5.37;;;21.20;36.60;;;;;;4994564;28;20533;-71
2023/07/19 07:12:00;;;;;;;18.63;5.77;;;21.10;40.20;;;;;;5007198;28;20456;-70
2023/07/19 07:14:27;;;;;;;13.40;5.63;;;21.10;45.40;;;;;;4998623;28;20454;-70
2023/07/19 07:16:54;;;;;;;11.47;5.93;;;21.00;45.30;;;;;;4999855;28;20446;-70
2023/07/19 07:19:20;;;;;;;13.73;5.40;;;20.90;45.20;;;;;;4997589;28;20973;-69
2023/07/19 07:21:47;;;;;;;14.30;5.67;;;20.70;45.10;;;;;;4997124;28;20450;-69
2023/07/19 07:24:15;;;;;;;17.33;6.43;;;20.50;44.80;;;;;;5011630;28;20830;-69
2023/07/19 07:26:42;;;;;;;14.53;5.90;;;20.40;44.70;;;;;;5004356;28;20532;-69
2023/07/19 07:29:09;;;;;;;12.87;6.13;;;20.40;44.70;;;;;;4997978;28;20450;-69
2023/07/19 07:31:36;;;;;;;23.60;6.77;;;20.70;45.10;;;;;;4996639;28;20541;-69
2023/07/19 07:34:03;;;;;;;21.13;6.13;;;21.10;45.40;;;;;;4995792;28;20454;-67
2023/07/19 07:36:30;;;;;;;18.37;6.17;;;21.00;36.30;;;;;;5000035;28;20447;-68
2023/07/19 07:38:56;;;;;;;12.57;4.87;;;21.20;36.40;;;;;;4997538;28;20836;-68
2023/07/19 07:41:24;;;;;;;12.73;4.73;;;21.30;36.50;;;;;;5000699;28;20468;-68
2023/07/19 07:43:51;;;;;;;14.67;5.47;;;21.50;36.70;;;;;;5013320;28;20468;-68
2023/07/19 07:46:18;;;;;;;15.83;4.57;;;21.30;33.80;;;;;;5013001;28;20485;-68
2023/07/19 07:48:45;;;;;;;13.73;5.20;;;21.40;36.60;;;;;;5012878;28;20945;-67
2023/07/19 07:51:12;;;;;;;14.27;4.73;;;21.70;36.80;;;;;;5013911;28;20445;-68
2023/07/19 07:53:39;;;;;;;22.50;5.50;;;21.80;36.20;;;;;;5013850;28;20548;-68
2023/07/19 07:56:06;;;;;;;14.97;5.20;;;21.50;28.40;;;;;;5013900;28;20483;-68
2023/07/19 07:58:34;;;;;;;15.97;5.53;;;21.40;33.90;;;;;;5013410;28;20463;-68
2023/07/19 08:01:01;;;;;;;13.50;5.33;;;21.40;36.50;;;;;;5013746;28;20454;-68
2023/07/19 08:03:28;;;;;;;12.30;5.33;;;21.40;36.60;;;;;;5013203;28;20460;-68
2023/07/19 08:05:54;;;;;;;11.60;6.70;;;21.50;36.70;;;;;;5013438;28;20477;-70
2023/07/19 08:08:21;;;;;;;10.17;4.80;;;21.50;36.70;;;;;;5013616;28;20461;-68
2023/07/19 08:10:48;;;;;;;11.33;5.60;;;21.00;34.30;;;;;;5013706;28;20465;-69
2023/07/19 08:13:16;;;;;;;14.70;5.20;;;20.90;36.10;;;;;;5013533;28;20464;-68
2023/07/19 08:15:44;;;;;;;10.70;5.20;;;21.10;36.30;;;;;;5013528;28;20488;-68
2023/07/19 08:18:11;;;;;;;12.83;5.70;;;21.20;36.40;;;;;;5013008;28;20462;-68
2023/07/19 08:20:39;;;;;;;16.23;5.77;;;21.10;36.30;;;;;;5013306;28;20453;-68
2023/07/19 08:23:06;;;;;;;13.97;6.27;;;20.90;36.10;;;;;;5013317;28;20453;-68
2023/07/19 08:25:35;;;;;;;16.13;6.20;;;20.50;35.80;;;;;;5013131;28;20465;-69
2023/07/19 08:28:02;;;;;;;10.40;5.27;;;20.40;40.40;;;;;;5013253;28;20461;-69
2023/07/19 08:30:29;;;;;;;16.20;5.90;;;20.10;97.40;;;;;;5013006;28;20987;-69
2023/07/19 08:32:57;;;;;;;17.50;6.23;;;19.50;57.50;;;;;;5013295;28;20571;-68
2023/07/19 08:35:24;;;;;;;10.57;6.87;;;19.30;52.60;;;;;;5013280;28;20453;-68
2023/07/19 08:37:50;;;;;;;11.40;6.23;;;19.40;61.30;;;;;;5013165;28;20454;-68
2023/07/19 08:40:17;;;;;;;10.50;5.20;;;19.60;57.40;;;;;;5012700;28;20954;-68
2023/07/19 08:42:45;;;;;;;11.90;5.83;;;20.10;53.40;;;;;;5013092;28;20458;-69
2023/07/19 08:45:14;;;;;;;9.80;5.90;;;20.70;62.40;;;;;;5013147;28;20449;-69
2023/07/19 08:47:41;;;;;;;13.20;5.57;;;21.30;54.40;;;;;;5013227;28;20535;-69
2023/07/19 08:50:11;;;;;;;14.20;5.30;;;21.80;51.30;;;;;;5013250;28;20453;-69
2023/07/19 08:52:39;;;;;;;14.40;6.20;;;21.80;46.00;;;;;;5013249;28;20473;-69
2023/07/19 08:55:08;;;;;;;15.40;5.37;;;21.90;40.50;;;;;;5013035;28;20954;-69
2023/07/19 08:57:39;;;;;;;14.33;4.57;;;21.80;37.00;;;;;;5012953;28;20460;-69
2023/07/19 09:00:08;;;;;;;7.97;4.70;;;21.60;43.30;;;;;;5012974;28;20489;-69
2023/07/19 09:02:35;;;;;;;10.60;4.33;;;21.70;44.90;;;;;;5013162;28;20824;-69
2023/07/19 09:05:06;;;;;;;14.00;4.13;;;22.20;42.90;;;;;;5012929;28;20457;-69
2023/07/19 09:07:38;;;;;;;9.37;5.10;;;22.40;37.50;;;;;;5012863;28;20486;-69
2023/07/19 09:10:06;;;;;;;11.20;4.30;;;22.80;37.60;;;;;;5013025;28;20775;-69
2023/07/19 09:12:37;;;;;;;9.17;4.80;;;23.10;29.30;;;;;;5013081;28;20817;-69
2023/07/19 09:15:06;;;;;;;9.50;4.53;;;22.90;32.30;;;;;;5011961;28;20450;-69
2023/07/19 09:17:37;;;;;;;13.27;5.43;;;22.90;29.10;;;;;;5013047;28;20511;-69
2023/07/19 09:20:05;;;;;;;12.17;4.97;;;22.80;29.00;;;;;;5012378;28;20457;-69
2023/07/19 09:22:32;;;;;;;10.63;5.00;;;22.80;29.00;;;;;;5012509;28;20504;-69
2023/07/19 09:25:03;;;;;;;10.30;4.53;;;22.60;28.90;;;;;;5012743;28;20516;-69
2023/07/19 09:27:30;;;;;;;16.53;4.70;;;22.50;25.60;;;;;;5012839;28;20557;-69
2023/07/19 09:29:57;;;;;;;10.10;4.57;;;22.70;29.00;;;;;;5012354;28;20457;-69
2023/07/19 09:32:24;;;;;;;11.43;4.63;;;22.90;26.40;;;;;;5012462;28;20461;-69
2023/07/19 09:34:54;;;;;;;9.17;4.50;;;23.00;21.90;;;;;;5012604;28;20468;-69
2023/07/19 09:37:22;;;;;;;12.80;5.30;;;23.10;21.90;;;;;;5012357;28;20453;-69
2023/07/19 09:39:49;;;;;;;9.57;4.83;;;23.70;22.40;;;;;;5012154;28;20464;-69
2023/07/19 09:42:19;;;;;;;9.73;4.10;;;23.50;18.60;;;;;;5012387;28;20461;-69
2023/07/19 09:44:46;;;;;;;10.83;4.60;;;23.60;22.30;;;;;;5012498;28;20823;-69
2023/07/19 09:47:14;;;;;;;8.83;4.83;;;23.40;16.60;;;;;;5012427;28;21244;-69
2023/07/19 09:49:42;;;;;;;10.13;5.17;;;23.50;18.40;;;;;;5012066;28;20457;-70
2023/07/19 09:52:09;;;;;;;16.20;5.37;;;23.50;15.50;;;;;;5012360;28;20457;-69
2023/07/19 09:54:36;;;;;;;11.93;5.60;;;23.70;14.90;;;;;;5012488;28;20838;-69
2023/07/19 09:57:03;;;;;;;16.67;5.73;;;23.70;14.90;;;;;;5012468;28;20453;-69
2023/07/19 09:59:38;;;;;;;14.20;4.80;;;23.60;18.10;;;;;;5011974;28;20820;-69
2023/07/19 10:02:05;;;;;;;11.17;4.87;;;24.50;15.40;;;;;;5012245;28;20457;-69
2023/07/19 10:04:38;;;;;;;12.30;4.30;;;24.70;15.60;;;;;;5012154;28;20449;-70
2023/07/19 10:07:09;;;;;;;9.93;4.80;;;25.10;15.80;;;;;;5012080;28;20482;-70
2023/07/19 10:09:41;;;;;;;13.03;5.90;;;25.80;12.10;;;;;;5011869;28;20454;-70
2023/07/19 10:12:22;;;;;;;13.20;5.60;;;25.90;8.60;;;;;;5012094;28;21042;-70
2023/07/19 10:14:57;;;;;;;7.80;3.63;;;26.70;5.00;;;;;;5011966;28;20991;-70
2023/07/19 10:17:24;;;;;;;14.53;4.63;;;27.30;1.50;;;;;;5012335;28;20432;-70
2023/07/19 10:20:14;;;;;;;10.43;3.70;;;27.70;1.70;;;;;;5012146;28;20434;-70
2023/07/19 10:22:53;;;;;;;7.73;3.17;;;28.70;2.00;;;;;;5008155;28;20495;-70
2023/07/19 10:25:25;;;;;;;8.20;3.57;;;28.60;1.00;;;;;;5012551;28;20456;-70
2023/07/19 10:28:00;;;;;;;9.53;3.63;;;28.60;1.00;;;;;;5005386;28;20452;-72
2023/07/19 10:30:51;;;;;;;11.80;4.80;;;29.50;1.00;;;;;;5000142;28;20833;-72
2023/07/19 10:33:20;;;;;;;13.70;3.60;;;29.60;1.00;;;;;;4997492;28;20442;-71
2023/07/19 10:35:49;;;;;;;7.63;2.87;;;30.20;1.00;;;;;;4996789;28;20823;-72
2023/07/19 10:38:18;;;;;;;13.37;3.07;;;29.30;1.00;;;;;;5007406;28;20461;-72
2023/07/19 10:40:46;;;;;;;11.40;3.80;;;29.40;1.00;;;;;;4999092;28;20800;-72
2023/07/19 10:43:14;;;;;;;10.63;2.87;;;28.40;1.00;;;;;;5011395;28;20837;-70
2023/07/19 10:45:42;;;;;;;10.60;2.50;;;27.80;1.00;;;;;;5014508;28;20427;-69
2023/07/19 10:48:11;;;;;;;10.43;3.30;;;27.70;1.00;;;;;;5014204;28;20558;-69
2023/07/19 10:50:39;;;;;;;8.93;2.90;;;27.70;1.00;;;;;;5014755;28;20460;-70
2023/07/19 10:53:07;;;;;;;10.13;2.43;;;26.90;1.00;;;;;;5014568;28;20454;-70
2023/07/19 10:55:33;;;;;;;10.83;3.60;;;27.00;1.00;;;;;;5009439;28;20460;-69
2023/07/19 10:58:00;;;;;;;11.53;3.30;;;27.10;1.00;;;;;;4995174;28;20454;-70
2023/07/19 11:00:27;;;;;;;12.90;2.83;;;27.60;1.00;;;;;;4994897;28;20462;-69
2023/07/19 11:02:54;;;;;;;7.53;2.90;;;28.50;1.00;;;;;;4994891;28;20458;-71
2023/07/19 11:05:22;;;;;;;11.40;3.00;;;28.90;1.00;;;;;;4997307;28;20454;-71
2023/07/19 11:07:51;;;;;;;6.57;2.60;;;29.60;1.00;;;;;;5003439;28;20972;-70
2023/07/19 11:10:19;;;;;;;7.60;3.07;;;30.00;1.00;;;;;;5000930;28;20457;-71
2023/07/19 11:12:46;;;;;;;6.27;2.50;;;28.90;1.00;;;;;;5014013;28;20864;-71
2023/07/19 11:15:13;;;;;;;15.13;3.63;;;28.20;1.00;;;;;;5014046;28;20771;-71
2023/07/19 11:17:39;;;;;;;14.00;2.40;;;27.40;1.00;;;;;;5013988;28;20933;-70
2023/07/19 11:20:12;;;;;;;8.40;2.50;;;28.80;1.00;;;;;;5013846;28;20540;-70
2023/07/19 11:22:40;;;;;;;7.00;2.53;;;28.80;1.00;;;;;;5014045;28;20456;-71
2023/07/19 11:25:11;;;;;;;8.37;3.10;;;29.20;1.00;;;;;;4996200;28;20458;-71
2023/07/19 11:27:39;;;;;;;13.23;3.47;;;29.10;1.00;;;;;;4993866;28;20453;-70
2023/07/19 11:30:07;;;;;;;14.03;2.83;;;29.30;1.00;;;;;;4994208;28;20461;-71
2023/07/19 11:32:34;;;;;;;6.30;1.87;;;29.40;1.00;;;;;;4994091;28;20848;-71
2023/07/19 11:35:02;;;;;;;8.50;2.50;;;28.00;1.00;;;;;;4994294;28;20454;-71
2023/07/19 11:37:31;;;;;;;9.83;2.87;;;27.60;1.00;;;;;;4993340;28;20427;-71
2023/07/19 11:40:04;;;;;;;10.70;2.53;;;27.50;1.00;;;;;;4993563;28;20462;-71
2023/07/19 11:42:45;;;;;;;9.27;2.70;;;27.90;1.00;;;;;;4994071;28;20441;-72
2023/07/19 11:45:15;;;;;;;11.30;3.20;;;28.90;1.00;;;;;;4994041;28;20578;-71
2023/07/19 11:47:42;;;;;;;9.67;2.70;;;28.70;1.00;;;;;;4995708;28;20463;-71
2023/07/19 11:50:10;;;;;;;10.13;2.60;;;28.70;1.00;;;;;;4995954;28;20457;-73
2023/07/19 11:52:46;;;;;;;7.77;2.87;;;29.10;1.00;;;;;;5005836;28;20458;-71
2023/07/19 11:55:15;;;;;;;8.63;2.70;;;28.60;1.00;;;;;;5004597;28;20450;-73
2023/07/19 11:57:43;;;;;;;8.90;3.50;;;28.90;1.00;;;;;;5013384;28;20841;-70
2023/07/19 12:00:11;;;;;;;10.60;3.00;;;29.50;1.00;;;;;;5002403;28;20535;-71
2023/07/19 12:02:38;;;;;;;9.30;2.13;;;29.40;1.00;;;;;;4995721;28;20447;-71
2023/07/19 12:05:06;;;;;;;8.13;2.23;;;29.80;1.00;;;;;;4994447;28;20455;-71
2023/07/19 12:07:33;;;;;;;8.17;2.70;;;29.50;1.00;;;;;;4993486;28;20483;-72
2023/07/19 12:10:04;;;;;;;10.57;2.90;;;28.40;1.00;;;;;;4995049;28;20446;-71
2023/07/19 12:12:32;;;;;;;10.80;2.43;;;28.10;1.00;;;;;;4993325;28;20455;-71
2023/07/19 12:15:04;;;;;;;9.03;2.90;;;27.40;1.00;;;;;;4993299;28;20455;-71
2023/07/19 12:17:31;;;;;;;7.93;2.70;;;27.00;1.00;;;;;;4993129;28;20490;-71
2023/07/19 12:19:59;;;;;;;8.70;2.90;;;26.50;1.00;;;;;;4993046;28;20494;-71
2023/07/19 12:22:27;;;;;;;10.47;2.27;;;26.30;1.00;;;;;;4994239;28;20463;-71
2023/07/19 12:24:53;;;;;;;6.97;2.27;;;26.90;1.00;;;;;;5000456;28;20453;-70
2023/07/19 12:27:20;;;;;;;5.80;1.97;;;27.80;1.00;;;;;;5002054;28;20484;-68
2023/07/19 12:29:49;;;;;;;7.57;2.10;;;28.60;1.00;;;;;;5012831;28;20464;-70
2023/07/19 12:32:16;;;;;;;8.30;2.13;;;29.00;1.00;;;;;;5012782;28;20456;-68
2023/07/19 12:34:44;;;;;;;7.80;2.20;;;28.90;1.00;;;;;;5012600;28;20818;-66
2023/07/19 12:37:12;;;;;;;5.97;2.30;;;27.70;1.00;;;;;;5012765;28;20455;-67
2023/07/19 12:39:39;;;;;;;6.30;2.47;;;27.50;1.00;;;;;;5012790;28;20470;-66
2023/07/19 12:42:06;;;;;;;8.30;2.27;;;26.90;1.00;;;;;;5012836;28;20831;-68
2023/07/19 12:44:34;;;;;;;7.03;2.03;;;27.20;1.00;;;;;;5013420;28;20459;-66